sensor_id;sensor_type;location;lat;lon;timestamp;temperature;humidity
20416;DHT22;10367;52.202;5.996;2022-07-24T00:01:21;17.20;99.90
20416;DHT22;10367;52.202;5.996;2022-07-24T00:03:50;17.10;99.90
20416;DHT22;10367;52.202;5.996;2022-07-24T00:06:21;17.10;99.90
20416;DHT22;10367;52.202;5.996;2022-07-24T00:08:50;17.20;99.90
20416;DHT22;10367;52.202;5.996;2022-07-24T00:11:19;17.10;99.90
20416;DHT22;10367;52.202;5.996;2022-07-24T00:13:47;17.10;99.90
20416;DHT22;10367;52.202;5.996;2022-07-24T00:16:16;17.10;99.90
20416;DHT22;10367;52.202;5.996;2022-07-24T00:18:46;17.10;99.90
20416;DHT22;10367;52.202;5.996;2022-07-24T00:21:15;17.00;99.90
20416;DHT22;10367;52.202;5.996;2022-07-24T00:23:44;17.00;99.90
20416;DHT22;10367;52.202;5.996;2022-07-24T00:26:13;17.00;99.90
20416;DHT22;10367;52.202;5.996;2022-07-24T00:28:41;17.00;99.90
20416;DHT22;10367;52.202;5.996;2022-07-24T00:31:10;17.00;99.90
20416;DHT22;10367;52.202;5.996;2022-07-24T00:33:39;17.00;99.90
20416;DHT22;10367;52.202;5.996;2022-07-24T00:36:09;16.90;99.90
20416;DHT22;10367;52.202;5.996;2022-07-24T00:38:38;16.90;99.90
20416;DHT22;10367;52.202;5.996;2022-07-24T00:41:06;16.90;99.90
20416;DHT22;10367;52.202;5.996;2022-07-24T00:43:39;16.80;99.90
20416;DHT22;10367;52.202;5.996;2022-07-24T00:46:25;16.90;99.90
20416;DHT22;10367;52.202;5.996;2022-07-24T00:48:54;16.80;99.90
20416;DHT22;10367;52.202;5.996;2022-07-24T00:51:25;16.80;99.90
20416;DHT22;10367;52.202;5.996;2022-07-24T00:53:54;16.80;99.90
20416;DHT22;10367;52.202;5.996;2022-07-24T00:56:23;16.70;99.90
20416;DHT22;10367;52.202;5.996;2022-07-24T00:58:52;16.70;99.90
20416;DHT22;10367;52.202;5.996;2022-07-24T01:01:20;16.70;99.90
20416;DHT22;10367;52.202;5.996;2022-07-24T01:03:49;16.50;99.90
20416;DHT22;10367;52.202;5.996;2022-07-24T01:06:18;16.40;99.90
20416;DHT22;10367;52.202;5.996;2022-07-24T01:08:49;16.40;99.90
20416;DHT22;10367;52.202;5.996;2022-07-24T01:11:18;16.40;99.90
20416;DHT22;10367;52.202;5.996;2022-07-24T01:13:47;16.30;99.90
20416;DHT22;10367;52.202;5.996;2022-07-24T01:16:17;16.30;99.90
20416;DHT22;10367;52.202;5.996;2022-07-24T01:18:46;16.30;99.90
20416;DHT22;10367;52.202;5.996;2022-07-24T01:21:16;16.40;99.90
20416;DHT22;10367;52.202;5.996;2022-07-24T01:23:45;16.30;99.90
20416;DHT22;10367;52.202;5.996;2022-07-24T01:26:14;16.30;99.90
20416;DHT22;10367;52.202;5.996;2022-07-24T01:28:42;16.30;99.90
20416;DHT22;10367;52.202;5.996;2022-07-24T01:31:11;16.40;99.90
20416;DHT22;10367;52.202;5.996;2022-07-24T01:33:40;16.40;99.90
20416;DHT22;10367;52.202;5.996;2022-07-24T01:36:09;16.40;99.90
20416;DHT22;10367;52.202;5.996;2022-07-24T01:38:39;16.50;99.90
20416;DHT22;10367;52.202;5.996;2022-07-24T01:41:07;16.50;99.90
20416;DHT22;10367;52.202;5.996;2022-07-24T01:43:36;16.50;99.90
20416;DHT22;10367;52.202;5.996;2022-07-24T01:46:05;16.40;99.90
20416;DHT22;10367;52.202;5.996;2022-07-24T01:48:34;16.40;99.90
20416;DHT22;10367;52.202;5.996;2022-07-24T01:51:02;16.30;99.90
20416;DHT22;10367;52.202;5.996;2022-07-24T01:53:31;16.30;99.90
20416;DHT22;10367;52.202;5.996;2022-07-24T01:56:01;16.30;99.90
20416;DHT22;10367;52.202;5.996;2022-07-24T01:58:30;16.20;99.90
20416;DHT22;10367;52.202;5.996;2022-07-24T02:00:58;16.30;99.90
20416;DHT22;10367;52.202;5.996;2022-07-24T02:03:27;16.30;99.90
20416;DHT22;10367;52.202;5.996;2022-07-24T02:05:56;16.30;99.90
20416;DHT22;10367;52.202;5.996;2022-07-24T02:08:24;16.30;99.90
20416;DHT22;10367;52.202;5.996;2022-07-24T02:10:54;16.20;99.90
20416;DHT22;10367;52.202;5.996;2022-07-24T02:13:24;16.20;99.90
20416;DHT22;10367;52.202;5.996;2022-07-24T02:15:56;16.20;99.90
20416;DHT22;10367;52.202;5.996;2022-07-24T02:18:25;16.20;99.90
20416;DHT22;10367;52.202;5.996;2022-07-24T02:20:54;16.10;99.90
20416;DHT22;10367;52.202;5.996;2022-07-24T02:23:23;16.10;99.90
20416;DHT22;10367;52.202;5.996;2022-07-24T02:25:51;16.10;99.90
20416;DHT22;10367;52.202;5.996;2022-07-24T02:28:20;16.10;99.90
20416;DHT22;10367;52.202;5.996;2022-07-24T02:30:50;16.10;99.90
20416;DHT22;10367;52.202;5.996;2022-07-24T02:33:19;16.00;99.90
20416;DHT22;10367;52.202;5.996;2022-07-24T02:35:48;16.00;99.90
20416;DHT22;10367;52.202;5.996;2022-07-24T02:38:17;16.00;99.90
20416;DHT22;10367;52.202;5.996;2022-07-24T02:40:46;16.00;99.90
20416;DHT22;10367;52.202;5.996;2022-07-24T02:43:14;16.00;99.90
20416;DHT22;10367;52.202;5.996;2022-07-24T02:45:43;16.00;99.90
20416;DHT22;10367;52.202;5.996;2022-07-24T02:48:20;16.00;99.90
20416;DHT22;10367;52.202;5.996;2022-07-24T02:50:49;16.00;99.90
20416;DHT22;10367;52.202;5.996;2022-07-24T02:53:18;16.00;99.90
20416;DHT22;10367;52.202;5.996;2022-07-24T02:55:46;16.00;99.90
20416;DHT22;10367;52.202;5.996;2022-07-24T02:58:15;15.90;99.90
20416;DHT22;10367;52.202;5.996;2022-07-24T03:00:44;15.90;99.90
20416;DHT22;10367;52.202;5.996;2022-07-24T03:03:13;15.80;99.90
20416;DHT22;10367;52.202;5.996;2022-07-24T03:05:43;15.90;99.90
20416;DHT22;10367;52.202;5.996;2022-07-24T03:08:11;15.80;99.90
20416;DHT22;10367;52.202;5.996;2022-07-24T03:10:40;15.80;99.90
20416;DHT22;10367;52.202;5.996;2022-07-24T03:13:08;15.90;99.90
20416;DHT22;10367;52.202;5.996;2022-07-24T03:15:37;15.80;99.90
20416;DHT22;10367;52.202;5.996;2022-07-24T03:18:06;15.70;99.90
20416;DHT22;10367;52.202;5.996;2022-07-24T03:20:50;15.70;99.90
20416;DHT22;10367;52.202;5.996;2022-07-24T03:23:19;15.70;99.90
20416;DHT22;10367;52.202;5.996;2022-07-24T03:25:48;15.70;99.90
20416;DHT22;10367;52.202;5.996;2022-07-24T03:28:16;15.60;99.90
20416;DHT22;10367;52.202;5.996;2022-07-24T03:30:45;15.60;99.90
20416;DHT22;10367;52.202;5.996;2022-07-24T03:33:13;15.70;99.90
20416;DHT22;10367;52.202;5.996;2022-07-24T03:35:43;15.70;99.90
20416;DHT22;10367;52.202;5.996;2022-07-24T03:38:13;15.60;99.90
20416;DHT22;10367;52.202;5.996;2022-07-24T03:40:42;15.60;99.90
20416;DHT22;10367;52.202;5.996;2022-07-24T03:43:10;15.70;99.90
20416;DHT22;10367;52.202;5.996;2022-07-24T03:45:39;15.70;99.90
20416;DHT22;10367;52.202;5.996;2022-07-24T03:48:07;15.70;99.90
20416;DHT22;10367;52.202;5.996;2022-07-24T03:50:36;15.70;99.90
20416;DHT22;10367;52.202;5.996;2022-07-24T03:53:05;15.60;99.90
20416;DHT22;10367;52.202;5.996;2022-07-24T03:55:38;15.60;99.90
20416;DHT22;10367;52.202;5.996;2022-07-24T03:58:06;15.50;99.90
20416;DHT22;10367;52.202;5.996;2022-07-24T04:00:35;15.50;99.90
20416;DHT22;10367;52.202;5.996;2022-07-24T04:03:04;15.60;99.90
20416;DHT22;10367;52.202;5.996;2022-07-24T04:05:32;15.60;99.90
20416;DHT22;10367;52.202;5.996;2022-07-24T04:08:08;15.50;99.90
20416;DHT22;10367;52.202;5.996;2022-07-24T04:10:39;15.50;99.90
20416;DHT22;10367;52.202;5.996;2022-07-24T04:13:07;15.50;99.90
20416;DHT22;10367;52.202;5.996;2022-07-24T04:15:36;15.60;99.90
20416;DHT22;10367;52.202;5.996;2022-07-24T04:18:04;15.60;99.90
20416;DHT22;10367;52.202;5.996;2022-07-24T04:20:33;15.50;99.90
20416;DHT22;10367;52.202;5.996;2022-07-24T04:23:02;15.40;99.90
20416;DHT22;10367;52.202;5.996;2022-07-24T04:25:30;15.50;99.90
20416;DHT22;10367;52.202;5.996;2022-07-24T04:28:03;15.50;99.90
20416;DHT22;10367;52.202;5.996;2022-07-24T04:30:32;15.50;99.90
20416;DHT22;10367;52.202;5.996;2022-07-24T04:33:01;15.50;99.90
20416;DHT22;10367;52.202;5.996;2022-07-24T04:35:30;15.40;99.90
20416;DHT22;10367;52.202;5.996;2022-07-24T04:37:59;15.50;99.90
20416;DHT22;10367;52.202;5.996;2022-07-24T04:40:27;15.40;99.90
20416;DHT22;10367;52.202;5.996;2022-07-24T04:42:56;15.60;99.90
20416;DHT22;10367;52.202;5.996;2022-07-24T04:45:26;15.60;99.90
20416;DHT22;10367;52.202;5.996;2022-07-24T04:48:02;15.70;99.90
20416;DHT22;10367;52.202;5.996;2022-07-24T04:50:30;15.70;99.90
20416;DHT22;10367;52.202;5.996;2022-07-24T04:52:59;15.80;99.90
20416;DHT22;10367;52.202;5.996;2022-07-24T04:55:28;15.80;99.90
20416;DHT22;10367;52.202;5.996;2022-07-24T04:57:56;15.80;99.90
20416;DHT22;10367;52.202;5.996;2022-07-24T05:00:26;15.90;99.90
20416;DHT22;10367;52.202;5.996;2022-07-24T05:02:55;15.90;99.90
20416;DHT22;10367;52.202;5.996;2022-07-24T05:05:24;15.90;99.90
20416;DHT22;10367;52.202;5.996;2022-07-24T05:07:53;15.90;99.90
20416;DHT22;10367;52.202;5.996;2022-07-24T05:10:21;16.00;99.90
20416;DHT22;10367;52.202;5.996;2022-07-24T05:12:50;16.10;99.90
20416;DHT22;10367;52.202;5.996;2022-07-24T05:15:18;16.10;99.90
20416;DHT22;10367;52.202;5.996;2022-07-24T05:17:48;16.20;99.90
20416;DHT22;10367;52.202;5.996;2022-07-24T05:20:18;16.30;99.90
20416;DHT22;10367;52.202;5.996;2022-07-24T05:22:47;16.40;99.90
20416;DHT22;10367;52.202;5.996;2022-07-24T05:25:16;16.40;99.90
20416;DHT22;10367;52.202;5.996;2022-07-24T05:27:44;16.50;99.90
20416;DHT22;10367;52.202;5.996;2022-07-24T05:30:13;16.60;99.90
20416;DHT22;10367;52.202;5.996;2022-07-24T05:32:42;16.60;99.90
20416;DHT22;10367;52.202;5.996;2022-07-24T05:35:12;16.70;99.90
20416;DHT22;10367;52.202;5.996;2022-07-24T05:37:40;16.70;99.90
20416;DHT22;10367;52.202;5.996;2022-07-24T05:40:10;16.80;99.90
20416;DHT22;10367;52.202;5.996;2022-07-24T05:42:39;16.90;99.90
20416;DHT22;10367;52.202;5.996;2022-07-24T05:45:08;16.90;99.90
20416;DHT22;10367;52.202;5.996;2022-07-24T05:47:37;17.00;99.90
20416;DHT22;10367;52.202;5.996;2022-07-24T05:50:07;17.00;99.90
20416;DHT22;10367;52.202;5.996;2022-07-24T05:52:38;17.10;99.90
20416;DHT22;10367;52.202;5.996;2022-07-24T05:55:07;17.20;99.90
20416;DHT22;10367;52.202;5.996;2022-07-24T05:57:43;17.20;99.90
20416;DHT22;10367;52.202;5.996;2022-07-24T06:00:13;17.30;99.90
20416;DHT22;10367;52.202;5.996;2022-07-24T06:02:44;17.40;99.90
20416;DHT22;10367;52.202;5.996;2022-07-24T06:05:14;17.50;99.90
20416;DHT22;10367;52.202;5.996;2022-07-24T06:07:44;17.60;99.90
20416;DHT22;10367;52.202;5.996;2022-07-24T06:10:13;17.60;99.90
20416;DHT22;10367;52.202;5.996;2022-07-24T06:12:42;17.70;99.90
20416;DHT22;10367;52.202;5.996;2022-07-24T06:15:10;17.90;99.90
20416;DHT22;10367;52.202;5.996;2022-07-24T06:17:40;18.00;99.90
20416;DHT22;10367;52.202;5.996;2022-07-24T06:20:10;18.10;99.90
20416;DHT22;10367;52.202;5.996;2022-07-24T06:22:40;18.20;99.90
20416;DHT22;10367;52.202;5.996;2022-07-24T06:25:16;18.30;99.90
20416;DHT22;10367;52.202;5.996;2022-07-24T06:27:47;18.50;99.90
20416;DHT22;10367;52.202;5.996;2022-07-24T06:30:17;18.60;99.90
20416;DHT22;10367;52.202;5.996;2022-07-24T06:32:46;18.80;99.90
20416;DHT22;10367;52.202;5.996;2022-07-24T06:35:15;18.90;99.90
20416;DHT22;10367;52.202;5.996;2022-07-24T06:37:44;19.10;99.90
20416;DHT22;10367;52.202;5.996;2022-07-24T06:40:16;19.30;99.90
20416;DHT22;10367;52.202;5.996;2022-07-24T06:42:47;19.30;99.90
20416;DHT22;10367;52.202;5.996;2022-07-24T06:45:16;19.40;99.90
20416;DHT22;10367;52.202;5.996;2022-07-24T06:47:46;19.40;99.90
20416;DHT22;10367;52.202;5.996;2022-07-24T06:50:15;19.50;99.90
20416;DHT22;10367;52.202;5.996;2022-07-24T06:52:43;19.70;99.90
20416;DHT22;10367;52.202;5.996;2022-07-24T06:55:12;19.80;99.90
20416;DHT22;10367;52.202;5.996;2022-07-24T06:57:42;20.00;99.90
20416;DHT22;10367;52.202;5.996;2022-07-24T07:00:12;20.10;99.90
20416;DHT22;10367;52.202;5.996;2022-07-24T07:02:41;20.10;99.90
20416;DHT22;10367;52.202;5.996;2022-07-24T07:05:10;20.30;99.90
20416;DHT22;10367;52.202;5.996;2022-07-24T07:07:39;20.40;99.90
20416;DHT22;10367;52.202;5.996;2022-07-24T07:10:08;20.40;99.90
20416;DHT22;10367;52.202;5.996;2022-07-24T07:12:37;20.50;99.90
20416;DHT22;10367;52.202;5.996;2022-07-24T07:15:10;20.50;99.90
20416;DHT22;10367;52.202;5.996;2022-07-24T07:17:39;20.60;99.90
20416;DHT22;10367;52.202;5.996;2022-07-24T07:20:10;20.70;99.90
20416;DHT22;10367;52.202;5.996;2022-07-24T07:22:40;20.80;99.90
20416;DHT22;10367;52.202;5.996;2022-07-24T07:25:09;21.00;99.90
20416;DHT22;10367;52.202;5.996;2022-07-24T07:27:38;21.10;99.90
20416;DHT22;10367;52.202;5.996;2022-07-24T07:30:09;21.10;99.90
20416;DHT22;10367;52.202;5.996;2022-07-24T07:32:40;21.10;99.90
20416;DHT22;10367;52.202;5.996;2022-07-24T07:35:08;21.20;99.90
20416;DHT22;10367;52.202;5.996;2022-07-24T07:37:49;21.20;99.90
20416;DHT22;10367;52.202;5.996;2022-07-24T07:40:18;21.40;99.90
20416;DHT22;10367;52.202;5.996;2022-07-24T07:42:47;21.50;99.90
20416;DHT22;10367;52.202;5.996;2022-07-24T07:45:17;21.50;99.90
20416;DHT22;10367;52.202;5.996;2022-07-24T07:47:46;21.60;99.90
20416;DHT22;10367;52.202;5.996;2022-07-24T07:50:14;21.50;99.90
20416;DHT22;10367;52.202;5.996;2022-07-24T07:52:43;21.50;99.90
20416;DHT22;10367;52.202;5.996;2022-07-24T07:55:12;21.70;99.90
20416;DHT22;10367;52.202;5.996;2022-07-24T07:57:40;21.90;99.90
20416;DHT22;10367;52.202;5.996;2022-07-24T08:00:32;22.00;99.90
20416;DHT22;10367;52.202;5.996;2022-07-24T08:03:01;22.00;99.90
20416;DHT22;10367;52.202;5.996;2022-07-24T08:05:30;22.00;99.90
20416;DHT22;10367;52.202;5.996;2022-07-24T08:07:58;22.20;99.90
20416;DHT22;10367;52.202;5.996;2022-07-24T08:10:28;22.20;99.90
20416;DHT22;10367;52.202;5.996;2022-07-24T08:12:56;22.40;99.90
20416;DHT22;10367;52.202;5.996;2022-07-24T08:15:25;22.50;99.90
20416;DHT22;10367;52.202;5.996;2022-07-24T08:17:56;22.50;99.90
20416;DHT22;10367;52.202;5.996;2022-07-24T08:20:26;22.60;99.90
20416;DHT22;10367;52.202;5.996;2022-07-24T08:22:56;22.80;99.90
20416;DHT22;10367;52.202;5.996;2022-07-24T08:25:25;22.80;99.90
20416;DHT22;10367;52.202;5.996;2022-07-24T08:27:54;22.90;99.90
20416;DHT22;10367;52.202;5.996;2022-07-24T08:30:23;23.10;99.90
20416;DHT22;10367;52.202;5.996;2022-07-24T08:32:52;23.20;99.90
20416;DHT22;10367;52.202;5.996;2022-07-24T08:35:23;23.20;99.90
20416;DHT22;10367;52.202;5.996;2022-07-24T08:37:59;23.40;99.90
20416;DHT22;10367;52.202;5.996;2022-07-24T08:40:33;23.50;99.90
20416;DHT22;10367;52.202;5.996;2022-07-24T08:43:03;23.60;99.90
20416;DHT22;10367;52.202;5.996;2022-07-24T08:45:35;23.60;99.90
20416;DHT22;10367;52.202;5.996;2022-07-24T08:48:05;23.80;99.90
20416;DHT22;10367;52.202;5.996;2022-07-24T08:50:39;23.90;99.90
20416;DHT22;10367;52.202;5.996;2022-07-24T08:53:08;24.20;99.90
20416;DHT22;10367;52.202;5.996;2022-07-24T08:55:38;24.30;99.90
20416;DHT22;10367;52.202;5.996;2022-07-24T08:58:06;24.40;99.90
20416;DHT22;10367;52.202;5.996;2022-07-24T09:00:35;24.60;99.90
20416;DHT22;10367;52.202;5.996;2022-07-24T09:03:04;24.70;99.90
20416;DHT22;10367;52.202;5.996;2022-07-24T09:05:33;24.80;99.90
20416;DHT22;10367;52.202;5.996;2022-07-24T09:08:09;24.90;99.90
20416;DHT22;10367;52.202;5.996;2022-07-24T09:10:38;24.80;99.90
20416;DHT22;10367;52.202;5.996;2022-07-24T09:13:13;24.90;99.90
20416;DHT22;10367;52.202;5.996;2022-07-24T09:15:45;25.00;99.90
20416;DHT22;10367;52.202;5.996;2022-07-24T09:18:32;25.00;99.90
20416;DHT22;10367;52.202;5.996;2022-07-24T09:21:14;25.20;99.90
20416;DHT22;10367;52.202;5.996;2022-07-24T09:23:45;25.30;99.90
20416;DHT22;10367;52.202;5.996;2022-07-24T09:26:15;25.30;99.90
20416;DHT22;10367;52.202;5.996;2022-07-24T09:28:49;25.30;99.90
20416;DHT22;10367;52.202;5.996;2022-07-24T09:31:17;25.30;99.90
20416;DHT22;10367;52.202;5.996;2022-07-24T09:33:49;25.40;99.70
20416;DHT22;10367;52.202;5.996;2022-07-24T09:36:18;25.60;99.10
20416;DHT22;10367;52.202;5.996;2022-07-24T09:38:49;25.60;98.30
20416;DHT22;10367;52.202;5.996;2022-07-24T09:41:20;25.70;97.40
20416;DHT22;10367;52.202;5.996;2022-07-24T09:43:59;25.70;97.20
20416;DHT22;10367;52.202;5.996;2022-07-24T09:46:28;26.00;95.30
20416;DHT22;10367;52.202;5.996;2022-07-24T09:48:59;25.90;95.80
20416;DHT22;10367;52.202;5.996;2022-07-24T09:51:29;26.10;95.00
20416;DHT22;10367;52.202;5.996;2022-07-24T09:53:59;26.10;94.30
20416;DHT22;10367;52.202;5.996;2022-07-24T09:56:29;26.30;93.60
20416;DHT22;10367;52.202;5.996;2022-07-24T09:58:58;26.70;92.80
20416;DHT22;10367;52.202;5.996;2022-07-24T10:01:28;26.60;92.20
20416;DHT22;10367;52.202;5.996;2022-07-24T10:03:58;26.80;91.90
20416;DHT22;10367;52.202;5.996;2022-07-24T10:06:28;27.00;91.50
20416;DHT22;10367;52.202;5.996;2022-07-24T10:09:00;27.10;91.20
20416;DHT22;10367;52.202;5.996;2022-07-24T10:11:33;27.20;91.10
20416;DHT22;10367;52.202;5.996;2022-07-24T10:14:03;27.60;90.60
20416;DHT22;10367;52.202;5.996;2022-07-24T10:16:32;27.70;90.10
20416;DHT22;10367;52.202;5.996;2022-07-24T10:19:06;27.70;89.80
20416;DHT22;10367;52.202;5.996;2022-07-24T10:21:37;27.70;89.40
20416;DHT22;10367;52.202;5.996;2022-07-24T10:24:34;27.50;90.20
20416;DHT22;10367;52.202;5.996;2022-07-24T10:27:17;27.70;89.10
20416;DHT22;10367;52.202;5.996;2022-07-24T10:29:52;27.90;87.90
20416;DHT22;10367;52.202;5.996;2022-07-24T10:32:22;27.90;87.30
20416;DHT22;10367;52.202;5.996;2022-07-24T10:35:00;27.90;87.10
20416;DHT22;10367;52.202;5.996;2022-07-24T10:37:37;28.10;86.50
20416;DHT22;10367;52.202;5.996;2022-07-24T10:40:17;28.20;85.50
20416;DHT22;10367;52.202;5.996;2022-07-24T10:43:09;28.20;85.30
20416;DHT22;10367;52.202;5.996;2022-07-24T10:45:39;28.70;83.50
20416;DHT22;10367;52.202;5.996;2022-07-24T10:48:26;28.60;83.10
20416;DHT22;10367;52.202;5.996;2022-07-24T10:51:16;28.60;82.90
20416;DHT22;10367;52.202;5.996;2022-07-24T10:53:51;28.80;80.40
20416;DHT22;10367;52.202;5.996;2022-07-24T10:56:24;28.90;81.90
20416;DHT22;10367;52.202;5.996;2022-07-24T10:58:55;29.50;80.30
20416;DHT22;10367;52.202;5.996;2022-07-24T11:01:42;29.70;78.90
20416;DHT22;10367;52.202;5.996;2022-07-24T11:04:29;29.40;78.90
20416;DHT22;10367;52.202;5.996;2022-07-24T11:07:08;29.40;77.10
20416;DHT22;10367;52.202;5.996;2022-07-24T11:09:59;29.60;76.80
20416;DHT22;10367;52.202;5.996;2022-07-24T11:12:30;29.60;76.20
20416;DHT22;10367;52.202;5.996;2022-07-24T11:15:19;29.60;77.20
20416;DHT22;10367;52.202;5.996;2022-07-24T11:18:13;29.90;76.10
20416;DHT22;10367;52.202;5.996;2022-07-24T11:20:42;29.80;76.10
20416;DHT22;10367;52.202;5.996;2022-07-24T11:23:18;29.90;76.00
20416;DHT22;10367;52.202;5.996;2022-07-24T11:25:50;29.80;75.30
20416;DHT22;10367;52.202;5.996;2022-07-24T11:28:20;29.70;75.40
20416;DHT22;10367;52.202;5.996;2022-07-24T11:30:48;29.60;75.20
20416;DHT22;10367;52.202;5.996;2022-07-24T11:33:21;29.70;75.00
20416;DHT22;10367;52.202;5.996;2022-07-24T11:35:50;29.80;74.60
20416;DHT22;10367;52.202;5.996;2022-07-24T11:38:18;30.00;74.20
20416;DHT22;10367;52.202;5.996;2022-07-24T11:43:35;30.50;72.10
20416;DHT22;10367;52.202;5.996;2022-07-24T11:46:03;30.40;71.90
20416;DHT22;10367;52.202;5.996;2022-07-24T11:48:32;30.60;71.40
20416;DHT22;10367;52.202;5.996;2022-07-24T11:51:04;30.40;70.90
20416;DHT22;10367;52.202;5.996;2022-07-24T11:53:53;30.10;71.00
20416;DHT22;10367;52.202;5.996;2022-07-24T11:56:22;30.20;71.70
20416;DHT22;10367;52.202;5.996;2022-07-24T11:58:52;30.10;71.70
20416;DHT22;10367;52.202;5.996;2022-07-24T12:01:22;30.30;71.20
20416;DHT22;10367;52.202;5.996;2022-07-24T12:03:51;30.30;71.30
20416;DHT22;10367;52.202;5.996;2022-07-24T12:06:20;30.90;71.30
20416;DHT22;10367;52.202;5.996;2022-07-24T12:09:05;31.20;69.10
20416;DHT22;10367;52.202;5.996;2022-07-24T12:11:34;31.20;69.00
20416;DHT22;10367;52.202;5.996;2022-07-24T12:14:12;31.60;68.20
20416;DHT22;10367;52.202;5.996;2022-07-24T12:16:41;30.90;69.30
20416;DHT22;10367;52.202;5.996;2022-07-24T12:19:17;31.00;69.30
20416;DHT22;10367;52.202;5.996;2022-07-24T12:21:47;31.00;69.20
20416;DHT22;10367;52.202;5.996;2022-07-24T12:24:18;31.20;68.80
20416;DHT22;10367;52.202;5.996;2022-07-24T12:26:49;31.30;68.60
20416;DHT22;10367;52.202;5.996;2022-07-24T12:29:19;31.70;68.30
20416;DHT22;10367;52.202;5.996;2022-07-24T12:31:48;32.00;67.60
20416;DHT22;10367;52.202;5.996;2022-07-24T12:34:18;31.60;67.70
20416;DHT22;10367;52.202;5.996;2022-07-24T12:36:46;31.60;68.10
20416;DHT22;10367;52.202;5.996;2022-07-24T12:39:15;30.90;68.00
20416;DHT22;10367;52.202;5.996;2022-07-24T12:41:49;30.60;68.90
20416;DHT22;10367;52.202;5.996;2022-07-24T12:44:19;30.80;68.30
20416;DHT22;10367;52.202;5.996;2022-07-24T12:46:48;31.00;67.60
20416;DHT22;10367;52.202;5.996;2022-07-24T12:49:17;31.40;67.00
20416;DHT22;10367;52.202;5.996;2022-07-24T12:51:48;31.60;66.40
20416;DHT22;10367;52.202;5.996;2022-07-24T12:54:19;32.00;65.80
20416;DHT22;10367;52.202;5.996;2022-07-24T12:56:49;32.00;65.80
20416;DHT22;10367;52.202;5.996;2022-07-24T12:59:24;32.20;65.80
20416;DHT22;10367;52.202;5.996;2022-07-24T13:01:56;32.60;65.30
20416;DHT22;10367;52.202;5.996;2022-07-24T13:04:26;32.70;64.80
20416;DHT22;10367;52.202;5.996;2022-07-24T13:06:57;32.90;64.70
20416;DHT22;10367;52.202;5.996;2022-07-24T13:09:28;32.90;64.80
20416;DHT22;10367;52.202;5.996;2022-07-24T13:12:04;33.10;64.70
20416;DHT22;10367;52.202;5.996;2022-07-24T13:14:35;33.60;64.50
20416;DHT22;10367;52.202;5.996;2022-07-24T13:17:06;33.60;64.00
20416;DHT22;10367;52.202;5.996;2022-07-24T13:19:37;33.60;63.80
20416;DHT22;10367;52.202;5.996;2022-07-24T13:22:06;33.40;64.10
20416;DHT22;10367;52.202;5.996;2022-07-24T13:24:35;33.00;64.40
20416;DHT22;10367;52.202;5.996;2022-07-24T13:27:05;33.20;64.20
20416;DHT22;10367;52.202;5.996;2022-07-24T13:29:35;33.40;63.90
20416;DHT22;10367;52.202;5.996;2022-07-24T13:32:05;33.30;64.30
20416;DHT22;10367;52.202;5.996;2022-07-24T13:34:34;33.40;63.90
20416;DHT22;10367;52.202;5.996;2022-07-24T13:37:03;33.70;63.00
20416;DHT22;10367;52.202;5.996;2022-07-24T13:39:36;33.30;63.30
20416;DHT22;10367;52.202;5.996;2022-07-24T13:42:08;33.40;64.40
20416;DHT22;10367;52.202;5.996;2022-07-24T13:44:38;33.70;62.80
20416;DHT22;10367;52.202;5.996;2022-07-24T13:47:07;33.60;62.60
20416;DHT22;10367;52.202;5.996;2022-07-24T13:49:36;33.70;62.40
20416;DHT22;10367;52.202;5.996;2022-07-24T13:52:05;33.90;62.10
20416;DHT22;10367;52.202;5.996;2022-07-24T13:54:36;33.90;62.20
20416;DHT22;10367;52.202;5.996;2022-07-24T13:57:05;34.30;61.50
20416;DHT22;10367;52.202;5.996;2022-07-24T13:59:33;34.20;61.70
20416;DHT22;10367;52.202;5.996;2022-07-24T14:02:04;34.00;61.90
20416;DHT22;10367;52.202;5.996;2022-07-24T14:04:33;33.90;62.20
20416;DHT22;10367;52.202;5.996;2022-07-24T14:07:02;33.70;62.00
20416;DHT22;10367;52.202;5.996;2022-07-24T14:09:31;33.60;62.00
20416;DHT22;10367;52.202;5.996;2022-07-24T14:11:59;34.00;61.60
20416;DHT22;10367;52.202;5.996;2022-07-24T14:14:28;34.00;61.00
20416;DHT22;10367;52.202;5.996;2022-07-24T14:16:56;34.10;60.70
20416;DHT22;10367;52.202;5.996;2022-07-24T14:19:27;34.10;61.00
20416;DHT22;10367;52.202;5.996;2022-07-24T14:21:55;34.40;60.60
20416;DHT22;10367;52.202;5.996;2022-07-24T14:24:24;34.30;61.00
20416;DHT22;10367;52.202;5.996;2022-07-24T14:26:53;34.20;61.10
20416;DHT22;10367;52.202;5.996;2022-07-24T14:29:21;34.40;60.50
20416;DHT22;10367;52.202;5.996;2022-07-24T14:31:50;34.40;60.80
20416;DHT22;10367;52.202;5.996;2022-07-24T14:34:19;34.10;60.10
20416;DHT22;10367;52.202;5.996;2022-07-24T14:36:49;34.10;60.40
20416;DHT22;10367;52.202;5.996;2022-07-24T14:39:18;34.10;60.30
20416;DHT22;10367;52.202;5.996;2022-07-24T14:41:47;34.30;60.00
20416;DHT22;10367;52.202;5.996;2022-07-24T14:44:17;34.40;59.80
20416;DHT22;10367;52.202;5.996;2022-07-24T14:46:46;34.20;59.90
20416;DHT22;10367;52.202;5.996;2022-07-24T14:49:15;34.30;59.60
20416;DHT22;10367;52.202;5.996;2022-07-24T14:51:44;34.40;59.30
20416;DHT22;10367;52.202;5.996;2022-07-24T14:54:14;33.90;59.90
20416;DHT22;10367;52.202;5.996;2022-07-24T14:56:43;33.50;60.60
20416;DHT22;10367;52.202;5.996;2022-07-24T14:59:11;33.90;60.20
20416;DHT22;10367;52.202;5.996;2022-07-24T15:01:47;33.70;60.00
20416;DHT22;10367;52.202;5.996;2022-07-24T15:04:16;33.40;60.40
20416;DHT22;10367;52.202;5.996;2022-07-24T15:06:45;33.50;60.30
20416;DHT22;10367;52.202;5.996;2022-07-24T15:09:15;34.10;59.90
20416;DHT22;10367;52.202;5.996;2022-07-24T15:11:44;34.50;59.50
20416;DHT22;10367;52.202;5.996;2022-07-24T15:14:13;34.70;59.20
20416;DHT22;10367;52.202;5.996;2022-07-24T15:16:42;34.80;58.80
20416;DHT22;10367;52.202;5.996;2022-07-24T15:19:10;34.80;59.20
20416;DHT22;10367;52.202;5.996;2022-07-24T15:21:39;34.70;58.80
20416;DHT22;10367;52.202;5.996;2022-07-24T15:24:08;34.70;58.70
20416;DHT22;10367;52.202;5.996;2022-07-24T15:26:38;34.80;58.70
20416;DHT22;10367;52.202;5.996;2022-07-24T15:29:07;34.60;58.50
20416;DHT22;10367;52.202;5.996;2022-07-24T15:31:36;34.70;58.70
20416;DHT22;10367;52.202;5.996;2022-07-24T15:34:06;34.70;58.60
20416;DHT22;10367;52.202;5.996;2022-07-24T15:36:37;35.10;58.30
20416;DHT22;10367;52.202;5.996;2022-07-24T15:39:08;34.80;58.80
20416;DHT22;10367;52.202;5.996;2022-07-24T15:41:39;34.70;58.80
20416;DHT22;10367;52.202;5.996;2022-07-24T15:44:08;34.70;58.70
20416;DHT22;10367;52.202;5.996;2022-07-24T15:46:37;35.20;58.10
20416;DHT22;10367;52.202;5.996;2022-07-24T15:49:06;34.90;58.40
20416;DHT22;10367;52.202;5.996;2022-07-24T15:51:37;35.00;58.30
20416;DHT22;10367;52.202;5.996;2022-07-24T15:54:05;34.90;58.40